createdAt,value
2023-02-14T17:58:29.597Z,32.20
2023-02-14T18:01:34.600Z,39.17
2023-02-14T18:04:38.428Z,59.35
2023-02-14T18:07:41.431Z,44.78
2023-02-14T18:11:06.638Z,35.72
2023-02-14T18:14:10.527Z,30.20
2023-02-14T18:17:14.472Z,32.33
2023-02-14T18:20:37.635Z,29.85
2023-02-14T18:23:43.668Z,31.40
2023-02-14T18:26:47.163Z,40.65
2023-02-14T18:29:52.899Z,38.72
2023-02-14T18:32:56.296Z,31.37
2023-02-14T18:36:09.003Z,34.17
2023-02-14T18:39:12.336Z,36.30
2023-02-14T18:42:17.866Z,27.87
2023-02-14T18:45:20.955Z,28.60
2023-02-14T18:48:45.014Z,28.73
2023-02-14T18:51:49.282Z,28.27
2023-02-14T18:55:22.401Z,25.10
2023-02-14T18:58:26.015Z,26.87
2023-02-14T19:01:31.821Z,23.67
2023-02-14T19:04:35.389Z,23.77
2023-02-14T19:07:38.584Z,24.45
2023-02-14T19:10:41.584Z,25.17
2023-02-14T19:13:49.966Z,24.80
2023-02-14T19:16:55.417Z,22.17
2023-02-14T19:19:59.830Z,19.77
2023-02-14T19:23:03.833Z,19.30
2023-02-14T19:26:11.685Z,19.08
2023-02-14T19:29:18.027Z,26.45
2023-02-14T19:32:23.153Z,32.45
2023-02-14T19:35:26.853Z,26.17
2023-02-14T19:38:30.493Z,30.02
2023-02-14T19:41:36.746Z,26.08
2023-02-14T19:44:40.477Z,23.83
2023-02-14T19:47:47.417Z,21.37
2023-02-14T19:50:52.657Z,18.50
2023-02-14T19:53:58.169Z,27.60
2023-02-14T19:57:02.993Z,18.02
2023-02-14T20:00:08.782Z,17.73
2023-02-14T20:03:14.743Z,25.30
2023-02-14T20:06:18.586Z,21.15
2023-02-14T20:09:23.573Z,15.85
2023-02-14T20:12:27.291Z,19.37
2023-02-14T20:15:31.238Z,18.87
2023-02-14T20:18:35.048Z,23.50
2023-02-14T20:21:40.477Z,17.27
2023-02-14T20:24:44.249Z,19.83
2023-02-14T20:27:47.767Z,19.20
2023-02-14T20:30:52.121Z,21.83
2023-02-14T20:33:56.844Z,47.38
2023-02-14T20:37:00.297Z,45.55
2023-02-14T20:40:03.891Z,37.35
2023-02-14T20:43:08.607Z,36.17
2023-02-14T20:46:12.869Z,24.80
2023-02-14T20:49:16.739Z,23.38
2023-02-14T20:52:20.342Z,25.70
2023-02-14T20:55:24.203Z,26.60
2023-02-14T20:58:30.947Z,35.22
2023-02-14T21:01:34.538Z,22.10
2023-02-14T21:04:37.922Z,21.83
2023-02-14T21:07:41.357Z,21.65
2023-02-14T21:10:44.438Z,17.17
2023-02-14T21:13:48.339Z,21.85
2023-02-14T21:16:51.447Z,21.60
2023-02-14T21:19:55.862Z,21.98
2023-02-14T21:22:59.184Z,24.17
2023-02-14T21:26:02.913Z,21.60
2023-02-14T21:29:07.521Z,34.47
2023-02-14T21:32:12.084Z,20.77
2023-02-14T21:35:15.691Z,29.17
2023-02-14T21:38:19.331Z,25.65
2023-02-14T21:41:24.720Z,24.65
2023-02-14T21:44:48.146Z,26.20
2023-02-14T21:48:09.776Z,17.85
2023-02-14T21:51:13.893Z,19.65
2023-02-14T21:54:17.695Z,17.55
2023-02-14T21:57:21.108Z,18.37
2023-02-14T22:00:26.159Z,18.62
2023-02-14T22:03:29.548Z,19.80
2023-02-14T22:06:36.751Z,17.48
2023-02-14T22:09:39.875Z,15.48
2023-02-14T22:12:42.582Z,19.55
2023-02-14T22:15:45.733Z,18.37
2023-02-14T22:18:49.047Z,21.62
2023-02-14T22:21:52.464Z,25.23
2023-02-14T22:24:55.247Z,24.25
2023-02-14T22:27:58.648Z,17.58
2023-02-14T22:31:01.898Z,29.20
2023-02-14T22:34:06.461Z,26.30
2023-02-14T22:37:10.135Z,23.67
2023-02-14T22:40:13.309Z,21.80
2023-02-14T22:43:16.643Z,19.48
2023-02-14T22:46:28.120Z,19.40
2023-02-14T22:49:30.926Z,23.67
2023-02-14T22:52:34.958Z,31.52
2023-02-14T22:55:37.737Z,24.27
2023-02-14T22:58:41.008Z,24.85
2023-02-14T23:01:44.192Z,23.35
2023-02-14T23:04:47.473Z,23.80
2023-02-14T23:07:50.241Z,21.62
2023-02-14T23:10:53.338Z,17.37
2023-02-14T23:14:15.785Z,18.02
2023-02-14T23:17:18.870Z,16.58
2023-02-14T23:20:40.376Z,15.05
2023-02-14T23:23:43.432Z,20.33
2023-02-14T23:26:46.806Z,16.83
2023-02-14T23:29:50.212Z,13.93
2023-02-14T23:32:55.007Z,20.40
2023-02-14T23:36:03.073Z,15.68
2023-02-14T23:39:06.637Z,16.12
2023-02-14T23:42:13.827Z,17.95
2023-02-14T23:45:34.913Z,20.00
2023-02-14T23:48:39.176Z,34.13
2023-02-14T23:51:43.024Z,19.08
2023-02-14T23:54:46.808Z,28.40
2023-02-14T23:57:49.514Z,13.82
